sensor_id;sensor_type;location;lat;lon;timestamp;P1;durP1;ratioP1;P2;durP2;ratioP2
82526;SDS011;72188;41.974;21.456;2023-12-14T00:01:43;157.07;;;87.32;;
82526;SDS011;72188;41.974;21.456;2023-12-14T00:06:37;137.95;;;78.63;;
82526;SDS011;72188;41.974;21.456;2023-12-14T00:09:03;129.48;;;71.43;;
82526;SDS011;72188;41.974;21.456;2023-12-14T00:11:29;163.75;;;90.43;;
82526;SDS011;72188;41.974;21.456;2023-12-14T00:13:55;161.07;;;87.55;;
82526;SDS011;72188;41.974;21.456;2023-12-14T00:16:21;162.45;;;87.03;;
82526;SDS011;72188;41.974;21.456;2023-12-14T00:18:47;156.45;;;89.40;;
82526;SDS011;72188;41.974;21.456;2023-12-14T00:21:13;176.20;;;97.57;;
82526;SDS011;72188;41.974;21.456;2023-12-14T00:23:39;166.05;;;90.88;;
82526;SDS011;72188;41.974;21.456;2023-12-14T00:26:05;157.77;;;89.68;;
82526;SDS011;72188;41.974;21.456;2023-12-14T00:28:31;161.68;;;91.05;;
82526;SDS011;72188;41.974;21.456;2023-12-14T00:30:57;151.10;;;82.75;;
82526;SDS011;72188;41.974;21.456;2023-12-14T00:33:23;156.60;;;87.72;;
82526;SDS011;72188;41.974;21.456;2023-12-14T00:35:49;161.38;;;93.00;;
82526;SDS011;72188;41.974;21.456;2023-12-14T00:38:15;153.70;;;89.13;;
82526;SDS011;72188;41.974;21.456;2023-12-14T00:40:41;143.27;;;84.63;;
82526;SDS011;72188;41.974;21.456;2023-12-14T00:43:07;159.80;;;86.78;;
82526;SDS011;72188;41.974;21.456;2023-12-14T00:45:34;158.65;;;91.05;;
82526;SDS011;72188;41.974;21.456;2023-12-14T00:48:00;162.70;;;96.15;;
82526;SDS011;72188;41.974;21.456;2023-12-14T00:50:26;148.98;;;84.28;;
82526;SDS011;72188;41.974;21.456;2023-12-14T00:52:52;146.60;;;84.00;;
82526;SDS011;72188;41.974;21.456;2023-12-14T00:55:18;108.72;;;61.20;;
82526;SDS011;72188;41.974;21.456;2023-12-14T00:57:44;134.57;;;75.18;;
82526;SDS011;72188;41.974;21.456;2023-12-14T01:00:10;148.05;;;80.32;;
82526;SDS011;72188;41.974;21.456;2023-12-14T01:02:37;145.48;;;82.20;;
82526;SDS011;72188;41.974;21.456;2023-12-14T01:05:04;145.63;;;76.72;;
82526;SDS011;72188;41.974;21.456;2023-12-14T01:07:30;126.93;;;69.72;;
82526;SDS011;72188;41.974;21.456;2023-12-14T01:09:57;142.30;;;76.72;;
82526;SDS011;72188;41.974;21.456;2023-12-14T01:12:23;135.80;;;81.07;;
82526;SDS011;72188;41.974;21.456;2023-12-14T01:14:49;139.63;;;80.22;;
82526;SDS011;72188;41.974;21.456;2023-12-14T01:17:15;145.38;;;85.00;;
82526;SDS011;72188;41.974;21.456;2023-12-14T01:19:41;142.43;;;76.10;;
82526;SDS011;72188;41.974;21.456;2023-12-14T01:22:07;142.75;;;78.88;;
82526;SDS011;72188;41.974;21.456;2023-12-14T01:24:33;137.60;;;77.72;;
82526;SDS011;72188;41.974;21.456;2023-12-14T01:26:59;135.65;;;73.13;;
82526;SDS011;72188;41.974;21.456;2023-12-14T01:29:25;133.93;;;72.90;;
82526;SDS011;72188;41.974;21.456;2023-12-14T01:31:51;123.05;;;69.57;;
82526;SDS011;72188;41.974;21.456;2023-12-14T01:34:17;99.43;;;55.00;;
82526;SDS011;72188;41.974;21.456;2023-12-14T01:36:44;98.18;;;55.58;;
82526;SDS011;72188;41.974;21.456;2023-12-14T01:39:10;92.18;;;53.47;;
82526;SDS011;72188;41.974;21.456;2023-12-14T01:41:36;79.75;;;45.40;;
82526;SDS011;72188;41.974;21.456;2023-12-14T01:44:02;95.38;;;50.90;;
82526;SDS011;72188;41.974;21.456;2023-12-14T01:46:28;95.65;;;55.90;;
82526;SDS011;72188;41.974;21.456;2023-12-14T01:48:54;98.40;;;51.05;;
82526;SDS011;72188;41.974;21.456;2023-12-14T01:51:20;102.38;;;52.03;;
82526;SDS011;72188;41.974;21.456;2023-12-14T01:53:46;93.28;;;54.25;;
82526;SDS011;72188;41.974;21.456;2023-12-14T01:56:12;90.70;;;53.00;;
82526;SDS011;72188;41.974;21.456;2023-12-14T01:58:38;98.50;;;51.75;;
82526;SDS011;72188;41.974;21.456;2023-12-14T02:03:33;109.47;;;64.95;;
82526;SDS011;72188;41.974;21.456;2023-12-14T02:05:59;122.07;;;68.60;;
82526;SDS011;72188;41.974;21.456;2023-12-14T02:08:26;131.65;;;68.25;;
82526;SDS011;72188;41.974;21.456;2023-12-14T02:10:53;120.82;;;65.38;;
82526;SDS011;72188;41.974;21.456;2023-12-14T02:13:19;118.15;;;64.20;;
82526;SDS011;72188;41.974;21.456;2023-12-14T02:15:45;103.47;;;61.35;;
82526;SDS011;72188;41.974;21.456;2023-12-14T02:18:12;121.88;;;65.35;;
82526;SDS011;72188;41.974;21.456;2023-12-14T02:20:38;115.20;;;58.83;;
82526;SDS011;72188;41.974;21.456;2023-12-14T02:23:04;117.22;;;67.60;;
82526;SDS011;72188;41.974;21.456;2023-12-14T02:25:30;116.65;;;62.00;;
82526;SDS011;72188;41.974;21.456;2023-12-14T02:27:56;114.72;;;63.83;;
82526;SDS011;72188;41.974;21.456;2023-12-14T02:30:22;110.05;;;62.58;;
82526;SDS011;72188;41.974;21.456;2023-12-14T02:32:48;101.40;;;59.80;;
82526;SDS011;72188;41.974;21.456;2023-12-14T02:35:14;96.35;;;54.13;;
82526;SDS011;72188;41.974;21.456;2023-12-14T02:37:40;100.50;;;55.22;;
82526;SDS011;72188;41.974;21.456;2023-12-14T02:40:07;102.28;;;53.65;;
82526;SDS011;72188;41.974;21.456;2023-12-14T02:42:33;107.43;;;57.47;;
82526;SDS011;72188;41.974;21.456;2023-12-14T02:45:00;100.32;;;57.67;;
82526;SDS011;72188;41.974;21.456;2023-12-14T02:47:27;90.72;;;51.70;;
82526;SDS011;72188;41.974;21.456;2023-12-14T02:49:54;100.90;;;57.08;;
82526;SDS011;72188;41.974;21.456;2023-12-14T02:52:20;96.03;;;55.17;;
82526;SDS011;72188;41.974;21.456;2023-12-14T02:54:46;84.03;;;52.50;;
82526;SDS011;72188;41.974;21.456;2023-12-14T02:57:12;98.80;;;56.45;;
82526;SDS011;72188;41.974;21.456;2023-12-14T02:59:38;93.60;;;53.35;;
82526;SDS011;72188;41.974;21.456;2023-12-14T03:02:04;92.75;;;54.53;;
82526;SDS011;72188;41.974;21.456;2023-12-14T03:04:31;93.13;;;49.25;;
82526;SDS011;72188;41.974;21.456;2023-12-14T03:06:57;96.00;;;51.97;;
82526;SDS011;72188;41.974;21.456;2023-12-14T03:09:27;95.28;;;55.33;;
82526;SDS011;72188;41.974;21.456;2023-12-14T03:11:53;96.00;;;55.97;;
82526;SDS011;72188;41.974;21.456;2023-12-14T03:14:19;94.53;;;55.78;;
82526;SDS011;72188;41.974;21.456;2023-12-14T03:16:45;95.18;;;55.67;;
82526;SDS011;72188;41.974;21.456;2023-12-14T03:19:13;99.55;;;57.08;;
82526;SDS011;72188;41.974;21.456;2023-12-14T03:21:39;103.50;;;55.97;;
82526;SDS011;72188;41.974;21.456;2023-12-14T03:24:05;98.97;;;56.35;;
82526;SDS011;72188;41.974;21.456;2023-12-14T03:26:31;91.88;;;54.28;;
82526;SDS011;72188;41.974;21.456;2023-12-14T03:28:57;97.70;;;54.03;;
82526;SDS011;72188;41.974;21.456;2023-12-14T03:31:23;89.22;;;53.67;;
82526;SDS011;72188;41.974;21.456;2023-12-14T03:33:49;100.30;;;54.92;;
82526;SDS011;72188;41.974;21.456;2023-12-14T03:36:15;92.38;;;54.72;;
82526;SDS011;72188;41.974;21.456;2023-12-14T03:38:41;81.07;;;49.08;;
82526;SDS011;72188;41.974;21.456;2023-12-14T03:41:07;82.05;;;50.55;;
82526;SDS011;72188;41.974;21.456;2023-12-14T03:43:33;92.55;;;53.17;;
82526;SDS011;72188;41.974;21.456;2023-12-14T03:45:59;86.53;;;53.47;;
82526;SDS011;72188;41.974;21.456;2023-12-14T03:48:26;87.35;;;49.95;;
82526;SDS011;72188;41.974;21.456;2023-12-14T03:50:52;85.80;;;50.83;;
82526;SDS011;72188;41.974;21.456;2023-12-14T03:53:18;88.43;;;51.25;;
82526;SDS011;72188;41.974;21.456;2023-12-14T03:55:44;93.07;;;53.08;;
82526;SDS011;72188;41.974;21.456;2023-12-14T03:58:10;91.20;;;50.75;;
82526;SDS011;72188;41.974;21.456;2023-12-14T04:00:36;86.10;;;50.80;;
82526;SDS011;72188;41.974;21.456;2023-12-14T04:03:03;84.78;;;50.83;;
82526;SDS011;72188;41.974;21.456;2023-12-14T04:05:29;92.68;;;52.33;;
82526;SDS011;72188;41.974;21.456;2023-12-14T04:07:55;75.78;;;48.22;;
82526;SDS011;72188;41.974;21.456;2023-12-14T04:10:21;76.07;;;43.38;;
82526;SDS011;72188;41.974;21.456;2023-12-14T04:12:47;89.10;;;53.00;;
82526;SDS011;72188;41.974;21.456;2023-12-14T04:15:13;82.05;;;50.40;;
82526;SDS011;72188;41.974;21.456;2023-12-14T04:17:39;90.97;;;49.83;;
82526;SDS011;72188;41.974;21.456;2023-12-14T04:20:05;82.25;;;47.92;;
82526;SDS011;72188;41.974;21.456;2023-12-14T04:22:32;87.80;;;50.28;;
82526;SDS011;72188;41.974;21.456;2023-12-14T04:24:58;79.97;;;46.60;;
82526;SDS011;72188;41.974;21.456;2023-12-14T04:27:24;81.15;;;47.17;;
82526;SDS011;72188;41.974;21.456;2023-12-14T04:29:53;74.78;;;46.80;;
82526;SDS011;72188;41.974;21.456;2023-12-14T04:32:19;82.25;;;48.88;;
82526;SDS011;72188;41.974;21.456;2023-12-14T04:34:45;72.07;;;43.28;;
82526;SDS011;72188;41.974;21.456;2023-12-14T04:37:11;82.50;;;47.45;;
82526;SDS011;72188;41.974;21.456;2023-12-14T04:39:37;82.50;;;46.40;;
82526;SDS011;72188;41.974;21.456;2023-12-14T04:42:04;82.05;;;49.28;;
82526;SDS011;72188;41.974;21.456;2023-12-14T04:44:30;69.00;;;39.22;;
82526;SDS011;72188;41.974;21.456;2023-12-14T04:46:56;65.55;;;37.38;;
82526;SDS011;72188;41.974;21.456;2023-12-14T04:49:22;76.53;;;44.17;;
82526;SDS011;72188;41.974;21.456;2023-12-14T04:51:48;82.75;;;47.85;;
82526;SDS011;72188;41.974;21.456;2023-12-14T04:54:14;87.95;;;48.78;;
82526;SDS011;72188;41.974;21.456;2023-12-14T04:56:40;92.07;;;52.25;;
82526;SDS011;72188;41.974;21.456;2023-12-14T04:59:09;90.68;;;52.25;;
82526;SDS011;72188;41.974;21.456;2023-12-14T05:01:35;84.50;;;49.90;;
82526;SDS011;72188;41.974;21.456;2023-12-14T05:04:01;88.43;;;50.67;;
82526;SDS011;72188;41.974;21.456;2023-12-14T05:06:28;91.63;;;48.97;;
82526;SDS011;72188;41.974;21.456;2023-12-14T05:08:54;94.00;;;53.60;;
82526;SDS011;72188;41.974;21.456;2023-12-14T05:11:20;73.57;;;44.92;;
82526;SDS011;72188;41.974;21.456;2023-12-14T05:13:46;92.15;;;54.17;;
82526;SDS011;72188;41.974;21.456;2023-12-14T05:16:16;87.80;;;54.35;;
82526;SDS011;72188;41.974;21.456;2023-12-14T05:18:42;85.38;;;53.58;;
82526;SDS011;72188;41.974;21.456;2023-12-14T05:21:08;92.30;;;51.40;;
82526;SDS011;72188;41.974;21.456;2023-12-14T05:23:34;95.75;;;59.95;;
82526;SDS011;72188;41.974;21.456;2023-12-14T05:26:00;93.25;;;56.50;;
82526;SDS011;72188;41.974;21.456;2023-12-14T05:28:26;100.47;;;57.72;;
82526;SDS011;72188;41.974;21.456;2023-12-14T05:30:52;92.00;;;54.25;;
82526;SDS011;72188;41.974;21.456;2023-12-14T05:33:18;92.43;;;53.58;;
82526;SDS011;72188;41.974;21.456;2023-12-14T05:35:44;100.88;;;55.70;;
82526;SDS011;72188;41.974;21.456;2023-12-14T05:38:10;91.28;;;52.13;;
82526;SDS011;72188;41.974;21.456;2023-12-14T05:40:36;104.00;;;58.90;;
82526;SDS011;72188;41.974;21.456;2023-12-14T05:43:02;115.93;;;60.42;;
82526;SDS011;72188;41.974;21.456;2023-12-14T05:45:28;115.55;;;62.92;;
82526;SDS011;72188;41.974;21.456;2023-12-14T05:47:55;112.30;;;67.07;;
82526;SDS011;72188;41.974;21.456;2023-12-14T05:50:21;118.60;;;69.57;;
82526;SDS011;72188;41.974;21.456;2023-12-14T05:52:48;121.68;;;71.63;;
82526;SDS011;72188;41.974;21.456;2023-12-14T05:55:14;129.63;;;80.45;;
82526;SDS011;72188;41.974;21.456;2023-12-14T05:57:40;146.20;;;80.90;;
82526;SDS011;72188;41.974;21.456;2023-12-14T06:00:06;133.90;;;77.28;;
82526;SDS011;72188;41.974;21.456;2023-12-14T06:02:32;120.28;;;71.38;;
82526;SDS011;72188;41.974;21.456;2023-12-14T06:04:58;125.53;;;71.43;;
82526;SDS011;72188;41.974;21.456;2023-12-14T06:07:25;130.15;;;73.45;;
82526;SDS011;72188;41.974;21.456;2023-12-14T06:09:51;134.55;;;74.78;;
82526;SDS011;72188;41.974;21.456;2023-12-14T06:12:17;108.22;;;62.75;;
82526;SDS011;72188;41.974;21.456;2023-12-14T06:14:43;104.18;;;62.22;;
82526;SDS011;72188;41.974;21.456;2023-12-14T06:17:10;115.40;;;63.42;;
82526;SDS011;72188;41.974;21.456;2023-12-14T06:19:36;124.53;;;68.05;;
82526;SDS011;72188;41.974;21.456;2023-12-14T06:22:02;182.43;;;100.97;;
82526;SDS011;72188;41.974;21.456;2023-12-14T06:24:28;126.80;;;73.57;;
82526;SDS011;72188;41.974;21.456;2023-12-14T06:26:54;131.55;;;75.00;;
82526;SDS011;72188;41.974;21.456;2023-12-14T06:29:20;116.78;;;71.63;;
82526;SDS011;72188;41.974;21.456;2023-12-14T06:31:46;144.00;;;78.35;;
82526;SDS011;72188;41.974;21.456;2023-12-14T06:34:12;130.50;;;76.15;;
82526;SDS011;72188;41.974;21.456;2023-12-14T06:36:41;128.93;;;76.70;;
82526;SDS011;72188;41.974;21.456;2023-12-14T06:39:08;120.93;;;70.57;;
82526;SDS011;72188;41.974;21.456;2023-12-14T06:41:34;111.88;;;67.60;;
82526;SDS011;72188;41.974;21.456;2023-12-14T06:44:00;114.30;;;69.35;;
82526;SDS011;72188;41.974;21.456;2023-12-14T06:46:26;120.30;;;70.55;;
82526;SDS011;72188;41.974;21.456;2023-12-14T06:48:52;134.50;;;76.18;;
82526;SDS011;72188;41.974;21.456;2023-12-14T06:51:19;128.30;;;77.78;;
82526;SDS011;72188;41.974;21.456;2023-12-14T06:53:45;120.97;;;70.80;;
82526;SDS011;72188;41.974;21.456;2023-12-14T06:56:12;122.07;;;73.30;;
82526;SDS011;72188;41.974;21.456;2023-12-14T06:58:39;117.60;;;66.47;;
82526;SDS011;72188;41.974;21.456;2023-12-14T07:01:05;130.55;;;73.38;;
82526;SDS011;72188;41.974;21.456;2023-12-14T07:03:31;142.63;;;77.25;;
82526;SDS011;72188;41.974;21.456;2023-12-14T07:05:57;154.43;;;85.32;;
82526;SDS011;72188;41.974;21.456;2023-12-14T07:08:24;138.27;;;71.63;;
82526;SDS011;72188;41.974;21.456;2023-12-14T07:10:50;148.10;;;81.38;;
82526;SDS011;72188;41.974;21.456;2023-12-14T07:13:16;126.40;;;75.75;;
82526;SDS011;72188;41.974;21.456;2023-12-14T07:15:43;133.38;;;78.65;;
82526;SDS011;72188;41.974;21.456;2023-12-14T07:18:09;134.30;;;78.43;;
82526;SDS011;72188;41.974;21.456;2023-12-14T07:20:35;139.60;;;75.25;;
82526;SDS011;72188;41.974;21.456;2023-12-14T07:23:01;131.10;;;70.13;;
82526;SDS011;72188;41.974;21.456;2023-12-14T07:25:28;139.43;;;79.65;;
82526;SDS011;72188;41.974;21.456;2023-12-14T07:27:54;139.35;;;80.78;;
82526;SDS011;72188;41.974;21.456;2023-12-14T07:30:21;115.03;;;71.22;;
82526;SDS011;72188;41.974;21.456;2023-12-14T07:32:47;115.45;;;69.38;;
82526;SDS011;72188;41.974;21.456;2023-12-14T07:35:13;134.80;;;78.10;;
82526;SDS011;72188;41.974;21.456;2023-12-14T07:37:39;117.57;;;68.60;;
82526;SDS011;72188;41.974;21.456;2023-12-14T07:40:05;132.40;;;78.55;;
82526;SDS011;72188;41.974;21.456;2023-12-14T07:42:31;128.70;;;78.05;;
82526;SDS011;72188;41.974;21.456;2023-12-14T07:44:57;122.03;;;76.50;;
82526;SDS011;72188;41.974;21.456;2023-12-14T07:47:24;115.80;;;65.47;;
82526;SDS011;72188;41.974;21.456;2023-12-14T07:49:50;127.07;;;72.32;;
82526;SDS011;72188;41.974;21.456;2023-12-14T07:52:16;129.05;;;74.82;;
82526;SDS011;72188;41.974;21.456;2023-12-14T07:54:42;125.63;;;71.70;;
82526;SDS011;72188;41.974;21.456;2023-12-14T07:57:08;114.70;;;69.40;;
82526;SDS011;72188;41.974;21.456;2023-12-14T07:59:34;119.72;;;68.95;;
82526;SDS011;72188;41.974;21.456;2023-12-14T08:02:01;118.82;;;67.05;;
82526;SDS011;72188;41.974;21.456;2023-12-14T08:04:28;122.10;;;68.25;;
82526;SDS011;72188;41.974;21.456;2023-12-14T08:06:54;105.30;;;62.97;;
82526;SDS011;72188;41.974;21.456;2023-12-14T08:09:24;108.95;;;63.97;;
82526;SDS011;72188;41.974;21.456;2023-12-14T08:11:50;116.07;;;67.18;;
82526;SDS011;72188;41.974;21.456;2023-12-14T08:14:17;110.63;;;65.97;;
82526;SDS011;72188;41.974;21.456;2023-12-14T08:16:43;112.55;;;67.90;;
82526;SDS011;72188;41.974;21.456;2023-12-14T08:19:09;121.97;;;76.03;;
82526;SDS011;72188;41.974;21.456;2023-12-14T08:21:36;130.50;;;80.90;;
82526;SDS011;72188;41.974;21.456;2023-12-14T08:24:02;125.82;;;76.22;;
82526;SDS011;72188;41.974;21.456;2023-12-14T08:26:28;118.13;;;74.18;;
82526;SDS011;72188;41.974;21.456;2023-12-14T08:28:54;134.23;;;80.18;;
82526;SDS011;72188;41.974;21.456;2023-12-14T08:31:20;146.10;;;87.85;;
82526;SDS011;72188;41.974;21.456;2023-12-14T08:33:47;176.63;;;105.68;;
82526;SDS011;72188;41.974;21.456;2023-12-14T08:36:16;189.52;;;108.00;;
82526;SDS011;72188;41.974;21.456;2023-12-14T08:38:42;163.52;;;94.75;;
82526;SDS011;72188;41.974;21.456;2023-12-14T08:41:11;150.85;;;84.38;;
82526;SDS011;72188;41.974;21.456;2023-12-14T08:43:37;137.63;;;81.55;;
82526;SDS011;72188;41.974;21.456;2023-12-14T08:46:04;131.73;;;80.25;;
82526;SDS011;72188;41.974;21.456;2023-12-14T08:48:30;126.20;;;69.30;;
82526;SDS011;72188;41.974;21.456;2023-12-14T08:50:56;138.60;;;76.20;;
82526;SDS011;72188;41.974;21.456;2023-12-14T08:53:22;137.27;;;79.68;;
82526;SDS011;72188;41.974;21.456;2023-12-14T08:55:48;132.68;;;82.95;;
82526;SDS011;72188;41.974;21.456;2023-12-14T08:58:14;127.95;;;77.75;;
82526;SDS011;72188;41.974;21.456;2023-12-14T09:00:40;140.68;;;83.05;;
82526;SDS011;72188;41.974;21.456;2023-12-14T09:03:06;128.32;;;79.47;;
82526;SDS011;72188;41.974;21.456;2023-12-14T09:05:32;131.00;;;79.57;;
82526;SDS011;72188;41.974;21.456;2023-12-14T09:07:59;140.68;;;84.05;;
82526;SDS011;72188;41.974;21.456;2023-12-14T09:10:25;143.85;;;88.18;;
82526;SDS011;72188;41.974;21.456;2023-12-14T09:12:51;146.52;;;88.53;;
82526;SDS011;72188;41.974;21.456;2023-12-14T09:15:17;151.27;;;91.30;;
82526;SDS011;72188;41.974;21.456;2023-12-14T09:17:43;149.70;;;89.97;;
82526;SDS011;72188;41.974;21.456;2023-12-14T09:20:09;151.02;;;92.20;;
82526;SDS011;72188;41.974;21.456;2023-12-14T09:22:36;166.35;;;102.20;;
82526;SDS011;72188;41.974;21.456;2023-12-14T09:25:02;123.75;;;77.60;;
82526;SDS011;72188;41.974;21.456;2023-12-14T09:27:28;125.63;;;80.68;;
82526;SDS011;72188;41.974;21.456;2023-12-14T09:29:55;124.78;;;80.63;;
82526;SDS011;72188;41.974;21.456;2023-12-14T09:32:21;127.97;;;79.45;;
82526;SDS011;72188;41.974;21.456;2023-12-14T09:34:47;133.68;;;82.28;;
82526;SDS011;72188;41.974;21.456;2023-12-14T09:37:13;121.68;;;79.57;;
82526;SDS011;72188;41.974;21.456;2023-12-14T09:39:41;127.50;;;78.50;;
82526;SDS011;72188;41.974;21.456;2023-12-14T09:42:07;128.73;;;79.90;;
82526;SDS011;72188;41.974;21.456;2023-12-14T09:44:33;127.70;;;79.70;;
82526;SDS011;72188;41.974;21.456;2023-12-14T09:47:00;104.93;;;62.30;;
82526;SDS011;72188;41.974;21.456;2023-12-14T09:49:28;122.57;;;77.72;;
82526;SDS011;72188;41.974;21.456;2023-12-14T09:51:58;128.93;;;79.50;;
82526;SDS011;72188;41.974;21.456;2023-12-14T09:54:27;127.60;;;79.55;;
82526;SDS011;72188;41.974;21.456;2023-12-14T09:56:53;128.73;;;82.03;;
82526;SDS011;72188;41.974;21.456;2023-12-14T09:59:20;121.03;;;79.35;;
82526;SDS011;72188;41.974;21.456;2023-12-14T10:01:46;121.63;;;75.68;;
82526;SDS011;72188;41.974;21.456;2023-12-14T10:04:13;107.65;;;71.03;;
82526;SDS011;72188;41.974;21.456;2023-12-14T10:06:41;118.80;;;76.38;;
82526;SDS011;72188;41.974;21.456;2023-12-14T10:09:07;126.07;;;76.60;;
82526;SDS011;72188;41.974;21.456;2023-12-14T10:11:44;108.55;;;72.47;;
82526;SDS011;72188;41.974;21.456;2023-12-14T10:14:43;121.47;;;76.35;;
82526;SDS011;72188;41.974;21.456;2023-12-14T10:17:21;122.50;;;75.15;;
82526;SDS011;72188;41.974;21.456;2023-12-14T10:19:56;112.70;;;73.25;;
82526;SDS011;72188;41.974;21.456;2023-12-14T10:22:22;113.57;;;74.05;;
82526;SDS011;72188;41.974;21.456;2023-12-14T10:24:51;105.20;;;68.85;;
82526;SDS011;72188;41.974;21.456;2023-12-14T10:27:17;106.82;;;69.00;;
82526;SDS011;72188;41.974;21.456;2023-12-14T10:29:44;109.30;;;69.40;;
82526;SDS011;72188;41.974;21.456;2023-12-14T10:32:11;113.63;;;74.88;;
82526;SDS011;72188;41.974;21.456;2023-12-14T10:34:37;111.45;;;73.97;;
82526;SDS011;72188;41.974;21.456;2023-12-14T10:37:07;124.93;;;75.10;;
82526;SDS011;72188;41.974;21.456;2023-12-14T10:39:34;156.50;;;86.78;;
82526;SDS011;72188;41.974;21.456;2023-12-14T10:42:03;124.15;;;75.50;;
82526;SDS011;72188;41.974;21.456;2023-12-14T10:44:30;101.93;;;67.47;;
82526;SDS011;72188;41.974;21.456;2023-12-14T10:46:59;118.18;;;79.57;;
82526;SDS011;72188;41.974;21.456;2023-12-14T10:49:25;120.65;;;78.35;;
82526;SDS011;72188;41.974;21.456;2023-12-14T10:51:52;123.60;;;82.65;;
82526;SDS011;72188;41.974;21.456;2023-12-14T10:54:19;125.93;;;83.03;;
82526;SDS011;72188;41.974;21.456;2023-12-14T10:56:45;119.43;;;81.10;;
82526;SDS011;72188;41.974;21.456;2023-12-14T10:59:12;120.50;;;81.03;;
82526;SDS011;72188;41.974;21.456;2023-12-14T11:01:41;118.95;;;78.60;;
82526;SDS011;72188;41.974;21.456;2023-12-14T11:04:07;120.40;;;75.88;;
82526;SDS011;72188;41.974;21.456;2023-12-14T11:06:38;123.22;;;76.82;;
82526;SDS011;72188;41.974;21.456;2023-12-14T11:09:06;106.07;;;72.13;;
82526;SDS011;72188;41.974;21.456;2023-12-14T11:14:13;101.43;;;65.60;;
82526;SDS011;72188;41.974;21.456;2023-12-14T11:16:43;77.22;;;52.70;;
82526;SDS011;72188;41.974;21.456;2023-12-14T11:19:24;67.90;;;43.45;;
82526;SDS011;72188;41.974;21.456;2023-12-14T11:24:23;47.17;;;29.38;;
82526;SDS011;72188;41.974;21.456;2023-12-14T11:26:50;43.08;;;27.67;;
82526;SDS011;72188;41.974;21.456;2023-12-14T11:29:17;44.42;;;27.20;;
82526;SDS011;72188;41.974;21.456;2023-12-14T11:31:44;44.47;;;26.85;;
82526;SDS011;72188;41.974;21.456;2023-12-14T11:34:11;40.88;;;25.08;;
82526;SDS011;72188;41.974;21.456;2023-12-14T11:36:38;52.58;;;27.55;;
82526;SDS011;72188;41.974;21.456;2023-12-14T11:39:09;50.97;;;28.65;;
82526;SDS011;72188;41.974;21.456;2023-12-14T11:41:36;49.35;;;29.33;;
82526;SDS011;72188;41.974;21.456;2023-12-14T11:44:04;41.20;;;26.95;;
82526;SDS011;72188;41.974;21.456;2023-12-14T11:46:32;40.05;;;24.77;;
82526;SDS011;72188;41.974;21.456;2023-12-14T11:48:58;40.28;;;26.08;;
82526;SDS011;72188;41.974;21.456;2023-12-14T11:51:28;49.60;;;27.33;;
82526;SDS011;72188;41.974;21.456;2023-12-14T11:53:56;52.35;;;28.20;;
82526;SDS011;72188;41.974;21.456;2023-12-14T11:58:50;47.75;;;28.95;;
82526;SDS011;72188;41.974;21.456;2023-12-14T12:01:18;53.20;;;32.20;;
82526;SDS011;72188;41.974;21.456;2023-12-14T12:03:46;54.40;;;29.92;;
82526;SDS011;72188;41.974;21.456;2023-12-14T12:08:47;48.35;;;31.27;;
82526;SDS011;72188;41.974;21.456;2023-12-14T12:11:23;36.05;;;22.63;;
82526;SDS011;72188;41.974;21.456;2023-12-14T12:14:05;46.17;;;25.92;;
82526;SDS011;72188;41.974;21.456;2023-12-14T12:16:31;37.85;;;25.50;;
82526;SDS011;72188;41.974;21.456;2023-12-14T12:18:59;35.22;;;19.40;;
82526;SDS011;72188;41.974;21.456;2023-12-14T12:21:25;33.22;;;21.77;;
82526;SDS011;72188;41.974;21.456;2023-12-14T12:23:51;40.85;;;25.20;;
82526;SDS011;72188;41.974;21.456;2023-12-14T12:26:17;32.30;;;20.73;;
82526;SDS011;72188;41.974;21.456;2023-12-14T12:28:43;44.50;;;26.85;;
82526;SDS011;72188;41.974;21.456;2023-12-14T12:31:09;48.25;;;28.38;;
82526;SDS011;72188;41.974;21.456;2023-12-14T12:33:35;40.03;;;25.60;;
82526;SDS011;72188;41.974;21.456;2023-12-14T12:36:03;32.00;;;21.52;;
82526;SDS011;72188;41.974;21.456;2023-12-14T12:38:29;37.58;;;22.58;;
82526;SDS011;72188;41.974;21.456;2023-12-14T12:40:55;41.78;;;24.65;;
82526;SDS011;72188;41.974;21.456;2023-12-14T12:43:21;33.25;;;18.52;;
82526;SDS011;72188;41.974;21.456;2023-12-14T12:45:47;31.75;;;18.23;;
82526;SDS011;72188;41.974;21.456;2023-12-14T12:48:14;37.67;;;24.92;;
82526;SDS011;72188;41.974;21.456;2023-12-14T12:50:40;40.13;;;27.00;;
82526;SDS011;72188;41.974;21.456;2023-12-14T12:53:06;48.95;;;32.33;;
82526;SDS011;72188;41.974;21.456;2023-12-14T12:55:32;38.20;;;24.05;;
82526;SDS011;72188;41.974;21.456;2023-12-14T12:57:59;33.30;;;23.08;;
82526;SDS011;72188;41.974;21.456;2023-12-14T13:00:29;34.15;;;22.27;;
82526;SDS011;72188;41.974;21.456;2023-12-14T13:02:56;30.92;;;22.52;;
82526;SDS011;72188;41.974;21.456;2023-12-14T13:05:22;35.25;;;21.45;;
82526;SDS011;72188;41.974;21.456;2023-12-14T13:07:50;31.52;;;21.27;;
82526;SDS011;72188;41.974;21.456;2023-12-14T13:10:16;33.25;;;19.60;;
82526;SDS011;72188;41.974;21.456;2023-12-14T13:12:44;22.52;;;13.57;;
82526;SDS011;72188;41.974;21.456;2023-12-14T13:15:10;23.92;;;17.95;;
82526;SDS011;72188;41.974;21.456;2023-12-14T13:17:36;20.83;;;11.00;;
82526;SDS011;72188;41.974;21.456;2023-12-14T13:20:02;18.45;;;8.93;;
82526;SDS011;72188;41.974;21.456;2023-12-14T13:22:28;15.40;;;7.95;;
82526;SDS011;72188;41.974;21.456;2023-12-14T13:24:54;11.90;;;7.95;;
82526;SDS011;72188;41.974;21.456;2023-12-14T13:27:20;9.30;;;6.82;;
82526;SDS011;72188;41.974;21.456;2023-12-14T13:29:46;8.75;;;4.40;;
82526;SDS011;72188;41.974;21.456;2023-12-14T13:32:13;9.93;;;5.78;;
82526;SDS011;72188;41.974;21.456;2023-12-14T13:34:39;7.13;;;4.10;;
82526;SDS011;72188;41.974;21.456;2023-12-14T13:37:05;6.45;;;4.28;;
82526;SDS011;72188;41.974;21.456;2023-12-14T13:39:33;17.25;;;7.70;;
82526;SDS011;72188;41.974;21.456;2023-12-14T13:42:02;12.00;;;6.07;;
82526;SDS011;72188;41.974;21.456;2023-12-14T13:44:29;8.23;;;5.40;;
82526;SDS011;72188;41.974;21.456;2023-12-14T13:46:55;9.95;;;6.22;;
82526;SDS011;72188;41.974;21.456;2023-12-14T13:49:21;8.98;;;5.10;;
82526;SDS011;72188;41.974;21.456;2023-12-14T13:51:47;7.15;;;4.18;;
82526;SDS011;72188;41.974;21.456;2023-12-14T13:54:13;5.13;;;3.40;;
82526;SDS011;72188;41.974;21.456;2023-12-14T13:56:39;10.18;;;4.45;;
82526;SDS011;72188;41.974;21.456;2023-12-14T13:59:05;13.30;;;5.38;;
82526;SDS011;72188;41.974;21.456;2023-12-14T14:01:31;10.02;;;4.22;;
82526;SDS011;72188;41.974;21.456;2023-12-14T14:03:57;14.60;;;8.80;;
82526;SDS011;72188;41.974;21.456;2023-12-14T14:06:24;7.10;;;4.47;;
82526;SDS011;72188;41.974;21.456;2023-12-14T14:08:50;6.15;;;3.30;;
82526;SDS011;72188;41.974;21.456;2023-12-14T14:11:16;9.75;;;3.95;;
82526;SDS011;72188;41.974;21.456;2023-12-14T14:13:42;6.28;;;3.85;;
82526;SDS011;72188;41.974;21.456;2023-12-14T14:16:09;10.38;;;4.63;;